sensor_id;sensor_type;location;lat;lon;timestamp;P1;durP1;ratioP1;P2;durP2;ratioP2
16735;SDS011;17990;49.548;9.730;2024-03-08T00:01:06;20.27;;;10.80;;
16735;SDS011;17990;49.548;9.730;2024-03-08T00:03:32;18.60;;;10.87;;
16735;SDS011;17990;49.548;9.730;2024-03-08T00:05:59;19.03;;;11.43;;
16735;SDS011;17990;49.548;9.730;2024-03-08T00:08:26;17.87;;;11.13;;
16735;SDS011;17990;49.548;9.730;2024-03-08T00:10:53;18.47;;;11.87;;
16735;SDS011;17990;49.548;9.730;2024-03-08T00:13:19;15.07;;;10.70;;
16735;SDS011;17990;49.548;9.730;2024-03-08T00:15:45;20.50;;;11.17;;
16735;SDS011;17990;49.548;9.730;2024-03-08T00:18:14;17.47;;;10.83;;
16735;SDS011;17990;49.548;9.730;2024-03-08T00:20:41;17.10;;;11.67;;
16735;SDS011;17990;49.548;9.730;2024-03-08T00:23:09;18.00;;;11.27;;
16735;SDS011;17990;49.548;9.730;2024-03-08T00:25:35;20.10;;;11.70;;
16735;SDS011;17990;49.548;9.730;2024-03-08T00:28:04;20.50;;;10.97;;
16735;SDS011;17990;49.548;9.730;2024-03-08T00:30:31;19.60;;;11.03;;
16735;SDS011;17990;49.548;9.730;2024-03-08T00:32:57;19.20;;;12.10;;
16735;SDS011;17990;49.548;9.730;2024-03-08T00:35:26;19.73;;;11.50;;
16735;SDS011;17990;49.548;9.730;2024-03-08T00:37:52;19.97;;;11.93;;
16735;SDS011;17990;49.548;9.730;2024-03-08T00:40:21;20.77;;;12.20;;
16735;SDS011;17990;49.548;9.730;2024-03-08T00:42:48;21.57;;;12.33;;
16735;SDS011;17990;49.548;9.730;2024-03-08T00:45:15;18.97;;;11.93;;
16735;SDS011;17990;49.548;9.730;2024-03-08T00:47:42;17.83;;;10.80;;
16735;SDS011;17990;49.548;9.730;2024-03-08T00:50:09;19.50;;;12.13;;
16735;SDS011;17990;49.548;9.730;2024-03-08T00:52:37;19.60;;;11.73;;
16735;SDS011;17990;49.548;9.730;2024-03-08T00:55:04;19.00;;;11.60;;
16735;SDS011;17990;49.548;9.730;2024-03-08T00:57:32;18.63;;;12.00;;
16735;SDS011;17990;49.548;9.730;2024-03-08T01:00:00;18.60;;;11.90;;
16735;SDS011;17990;49.548;9.730;2024-03-08T01:02:28;20.03;;;10.97;;
16735;SDS011;17990;49.548;9.730;2024-03-08T01:04:55;21.63;;;11.53;;
16735;SDS011;17990;49.548;9.730;2024-03-08T01:07:23;21.43;;;11.53;;
16735;SDS011;17990;49.548;9.730;2024-03-08T01:09:51;21.13;;;11.50;;
16735;SDS011;17990;49.548;9.730;2024-03-08T01:12:17;19.17;;;11.70;;
16735;SDS011;17990;49.548;9.730;2024-03-08T01:14:45;25.27;;;12.40;;
16735;SDS011;17990;49.548;9.730;2024-03-08T01:17:11;21.23;;;12.37;;
16735;SDS011;17990;49.548;9.730;2024-03-08T01:19:38;19.57;;;11.97;;
16735;SDS011;17990;49.548;9.730;2024-03-08T01:22:05;21.07;;;12.23;;
16735;SDS011;17990;49.548;9.730;2024-03-08T01:24:32;21.60;;;12.53;;
16735;SDS011;17990;49.548;9.730;2024-03-08T01:27:01;21.27;;;12.07;;
16735;SDS011;17990;49.548;9.730;2024-03-08T01:29:28;22.93;;;11.70;;
16735;SDS011;17990;49.548;9.730;2024-03-08T01:31:54;21.30;;;12.27;;
16735;SDS011;17990;49.548;9.730;2024-03-08T01:34:21;22.33;;;12.50;;
16735;SDS011;17990;49.548;9.730;2024-03-08T01:36:48;21.43;;;12.30;;
16735;SDS011;17990;49.548;9.730;2024-03-08T01:39:15;19.83;;;12.20;;
16735;SDS011;17990;49.548;9.730;2024-03-08T01:41:42;22.13;;;11.73;;
16735;SDS011;17990;49.548;9.730;2024-03-08T01:44:10;23.07;;;12.73;;
16735;SDS011;17990;49.548;9.730;2024-03-08T01:46:40;18.37;;;10.93;;
16735;SDS011;17990;49.548;9.730;2024-03-08T01:49:09;24.00;;;13.10;;
16735;SDS011;17990;49.548;9.730;2024-03-08T01:51:37;20.97;;;11.93;;
16735;SDS011;17990;49.548;9.730;2024-03-08T01:54:06;22.00;;;12.40;;
16735;SDS011;17990;49.548;9.730;2024-03-08T01:56:35;25.17;;;12.63;;
16735;SDS011;17990;49.548;9.730;2024-03-08T01:59:02;21.67;;;13.10;;
16735;SDS011;17990;49.548;9.730;2024-03-08T02:01:32;20.97;;;12.37;;
16735;SDS011;17990;49.548;9.730;2024-03-08T02:03:59;24.00;;;13.23;;
16735;SDS011;17990;49.548;9.730;2024-03-08T02:06:26;21.73;;;12.53;;
16735;SDS011;17990;49.548;9.730;2024-03-08T02:08:52;21.73;;;12.63;;
16735;SDS011;17990;49.548;9.730;2024-03-08T02:11:19;22.27;;;12.57;;
16735;SDS011;17990;49.548;9.730;2024-03-08T02:13:46;23.23;;;13.33;;
16735;SDS011;17990;49.548;9.730;2024-03-08T02:16:19;23.60;;;13.07;;
16735;SDS011;17990;49.548;9.730;2024-03-08T02:18:48;25.77;;;12.77;;
16735;SDS011;17990;49.548;9.730;2024-03-08T02:21:17;19.77;;;11.83;;
16735;SDS011;17990;49.548;9.730;2024-03-08T02:23:44;19.60;;;11.83;;
16735;SDS011;17990;49.548;9.730;2024-03-08T02:26:11;24.03;;;12.80;;
16735;SDS011;17990;49.548;9.730;2024-03-08T02:28:38;22.03;;;12.60;;
16735;SDS011;17990;49.548;9.730;2024-03-08T02:31:08;21.70;;;12.30;;
16735;SDS011;17990;49.548;9.730;2024-03-08T02:33:34;23.27;;;13.17;;
16735;SDS011;17990;49.548;9.730;2024-03-08T02:36:01;25.00;;;12.27;;
16735;SDS011;17990;49.548;9.730;2024-03-08T02:38:30;21.27;;;12.90;;
16735;SDS011;17990;49.548;9.730;2024-03-08T02:40:56;21.70;;;12.63;;
16735;SDS011;17990;49.548;9.730;2024-03-08T02:43:23;24.00;;;13.73;;
16735;SDS011;17990;49.548;9.730;2024-03-08T02:45:50;24.37;;;12.53;;
16735;SDS011;17990;49.548;9.730;2024-03-08T02:48:18;24.83;;;12.40;;
16735;SDS011;17990;49.548;9.730;2024-03-08T02:50:46;24.00;;;12.90;;
16735;SDS011;17990;49.548;9.730;2024-03-08T02:53:13;23.40;;;12.67;;
16735;SDS011;17990;49.548;9.730;2024-03-08T02:55:41;23.57;;;13.03;;
16735;SDS011;17990;49.548;9.730;2024-03-08T02:58:08;25.97;;;13.43;;
16735;SDS011;17990;49.548;9.730;2024-03-08T03:00:35;26.23;;;13.60;;
16735;SDS011;17990;49.548;9.730;2024-03-08T03:03:03;24.43;;;13.40;;
16735;SDS011;17990;49.548;9.730;2024-03-08T03:05:31;24.23;;;12.67;;
16735;SDS011;17990;49.548;9.730;2024-03-08T03:07:58;26.50;;;14.30;;
16735;SDS011;17990;49.548;9.730;2024-03-08T03:10:25;23.73;;;13.23;;
16735;SDS011;17990;49.548;9.730;2024-03-08T03:12:53;25.67;;;13.53;;
16735;SDS011;17990;49.548;9.730;2024-03-08T03:15:20;22.40;;;13.43;;
16735;SDS011;17990;49.548;9.730;2024-03-08T03:17:47;24.57;;;13.13;;
16735;SDS011;17990;49.548;9.730;2024-03-08T03:20:16;24.93;;;13.20;;
16735;SDS011;17990;49.548;9.730;2024-03-08T03:22:48;24.67;;;13.63;;
16735;SDS011;17990;49.548;9.730;2024-03-08T03:25:16;23.27;;;12.60;;
16735;SDS011;17990;49.548;9.730;2024-03-08T03:27:48;33.10;;;16.57;;
16735;SDS011;17990;49.548;9.730;2024-03-08T03:30:17;40.73;;;18.90;;
16735;SDS011;17990;49.548;9.730;2024-03-08T03:32:47;28.63;;;15.33;;
16735;SDS011;17990;49.548;9.730;2024-03-08T03:35:14;26.27;;;13.80;;
16735;SDS011;17990;49.548;9.730;2024-03-08T03:37:41;23.87;;;13.70;;
16735;SDS011;17990;49.548;9.730;2024-03-08T03:40:10;26.17;;;13.57;;
16735;SDS011;17990;49.548;9.730;2024-03-08T03:42:39;26.50;;;13.37;;
16735;SDS011;17990;49.548;9.730;2024-03-08T03:45:06;27.30;;;13.67;;
16735;SDS011;17990;49.548;9.730;2024-03-08T03:47:34;24.13;;;12.90;;
16735;SDS011;17990;49.548;9.730;2024-03-08T03:50:03;23.67;;;12.73;;
16735;SDS011;17990;49.548;9.730;2024-03-08T03:52:30;24.03;;;12.77;;
16735;SDS011;17990;49.548;9.730;2024-03-08T03:54:57;28.73;;;12.77;;
16735;SDS011;17990;49.548;9.730;2024-03-08T03:57:24;26.97;;;14.50;;
16735;SDS011;17990;49.548;9.730;2024-03-08T03:59:50;22.57;;;13.63;;
16735;SDS011;17990;49.548;9.730;2024-03-08T04:02:17;25.83;;;14.40;;
16735;SDS011;17990;49.548;9.730;2024-03-08T04:04:46;27.33;;;15.00;;
16735;SDS011;17990;49.548;9.730;2024-03-08T04:07:14;25.03;;;14.47;;
16735;SDS011;17990;49.548;9.730;2024-03-08T04:09:40;24.23;;;13.57;;
16735;SDS011;17990;49.548;9.730;2024-03-08T04:12:07;25.57;;;13.30;;
16735;SDS011;17990;49.548;9.730;2024-03-08T04:14:34;26.40;;;14.80;;
16735;SDS011;17990;49.548;9.730;2024-03-08T04:17:01;25.33;;;14.17;;
16735;SDS011;17990;49.548;9.730;2024-03-08T04:19:28;27.17;;;14.43;;
16735;SDS011;17990;49.548;9.730;2024-03-08T04:21:56;28.47;;;16.33;;
16735;SDS011;17990;49.548;9.730;2024-03-08T04:24:23;28.83;;;16.03;;
16735;SDS011;17990;49.548;9.730;2024-03-08T04:26:50;27.90;;;15.93;;
16735;SDS011;17990;49.548;9.730;2024-03-08T04:29:17;30.43;;;15.47;;
16735;SDS011;17990;49.548;9.730;2024-03-08T04:31:43;30.90;;;16.27;;
16735;SDS011;17990;49.548;9.730;2024-03-08T04:34:10;29.70;;;16.53;;
16735;SDS011;17990;49.548;9.730;2024-03-08T04:36:38;26.80;;;14.73;;
16735;SDS011;17990;49.548;9.730;2024-03-08T04:39:06;25.47;;;15.23;;
16735;SDS011;17990;49.548;9.730;2024-03-08T04:41:37;26.53;;;15.03;;
16735;SDS011;17990;49.548;9.730;2024-03-08T04:44:04;27.73;;;16.03;;
16735;SDS011;17990;49.548;9.730;2024-03-08T04:46:31;25.47;;;14.07;;
16735;SDS011;17990;49.548;9.730;2024-03-08T04:49:00;28.17;;;14.93;;
16735;SDS011;17990;49.548;9.730;2024-03-08T04:51:27;26.23;;;14.43;;
16735;SDS011;17990;49.548;9.730;2024-03-08T04:53:53;28.00;;;14.30;;
16735;SDS011;17990;49.548;9.730;2024-03-08T04:56:23;24.90;;;14.23;;
16735;SDS011;17990;49.548;9.730;2024-03-08T04:58:50;27.07;;;14.87;;
16735;SDS011;17990;49.548;9.730;2024-03-08T05:01:18;26.90;;;14.93;;
16735;SDS011;17990;49.548;9.730;2024-03-08T05:03:45;34.23;;;16.70;;
16735;SDS011;17990;49.548;9.730;2024-03-08T05:06:14;26.07;;;14.80;;
16735;SDS011;17990;49.548;9.730;2024-03-08T05:08:41;31.20;;;16.73;;
16735;SDS011;17990;49.548;9.730;2024-03-08T05:11:08;23.70;;;14.20;;
16735;SDS011;17990;49.548;9.730;2024-03-08T05:13:36;27.93;;;15.33;;
16735;SDS011;17990;49.548;9.730;2024-03-08T05:16:04;29.13;;;16.10;;
16735;SDS011;17990;49.548;9.730;2024-03-08T05:18:32;29.27;;;14.97;;
16735;SDS011;17990;49.548;9.730;2024-03-08T05:20:59;29.10;;;16.13;;
16735;SDS011;17990;49.548;9.730;2024-03-08T05:23:28;40.90;;;17.73;;
16735;SDS011;17990;49.548;9.730;2024-03-08T05:25:55;32.40;;;17.57;;
16735;SDS011;17990;49.548;9.730;2024-03-08T05:28:22;29.20;;;16.30;;
16735;SDS011;17990;49.548;9.730;2024-03-08T05:30:50;26.27;;;15.80;;
16735;SDS011;17990;49.548;9.730;2024-03-08T05:33:17;26.63;;;15.17;;
16735;SDS011;17990;49.548;9.730;2024-03-08T05:35:44;28.90;;;15.03;;
16735;SDS011;17990;49.548;9.730;2024-03-08T05:38:11;23.77;;;14.50;;
16735;SDS011;17990;49.548;9.730;2024-03-08T05:40:38;27.87;;;14.27;;
16735;SDS011;17990;49.548;9.730;2024-03-08T05:43:04;29.27;;;15.67;;
16735;SDS011;17990;49.548;9.730;2024-03-08T05:45:31;29.10;;;15.17;;
16735;SDS011;17990;49.548;9.730;2024-03-08T05:48:00;28.97;;;15.63;;
16735;SDS011;17990;49.548;9.730;2024-03-08T05:50:27;28.67;;;14.83;;
16735;SDS011;17990;49.548;9.730;2024-03-08T05:52:54;26.40;;;16.10;;
16735;SDS011;17990;49.548;9.730;2024-03-08T05:55:21;24.87;;;14.93;;
16735;SDS011;17990;49.548;9.730;2024-03-08T05:57:49;26.17;;;14.23;;
16735;SDS011;17990;49.548;9.730;2024-03-08T06:00:19;27.10;;;14.37;;
16735;SDS011;17990;49.548;9.730;2024-03-08T06:02:47;23.20;;;14.37;;
16735;SDS011;17990;49.548;9.730;2024-03-08T06:05:15;28.60;;;14.40;;
16735;SDS011;17990;49.548;9.730;2024-03-08T06:07:42;25.57;;;14.80;;
16735;SDS011;17990;49.548;9.730;2024-03-08T06:10:09;26.83;;;14.43;;
16735;SDS011;17990;49.548;9.730;2024-03-08T06:12:37;25.83;;;14.30;;
16735;SDS011;17990;49.548;9.730;2024-03-08T06:15:06;24.57;;;15.13;;
16735;SDS011;17990;49.548;9.730;2024-03-08T06:17:34;25.57;;;14.80;;
16735;SDS011;17990;49.548;9.730;2024-03-08T06:20:01;24.67;;;14.53;;
16735;SDS011;17990;49.548;9.730;2024-03-08T06:22:36;27.57;;;14.20;;
16735;SDS011;17990;49.548;9.730;2024-03-08T06:25:04;23.67;;;13.77;;
16735;SDS011;17990;49.548;9.730;2024-03-08T06:27:31;27.80;;;14.53;;
16735;SDS011;17990;49.548;9.730;2024-03-08T06:29:59;25.03;;;14.17;;
16735;SDS011;17990;49.548;9.730;2024-03-08T06:32:25;24.67;;;14.17;;
16735;SDS011;17990;49.548;9.730;2024-03-08T06:34:52;24.67;;;14.17;;
16735;SDS011;17990;49.548;9.730;2024-03-08T06:37:19;24.67;;;14.47;;
16735;SDS011;17990;49.548;9.730;2024-03-08T06:39:48;22.20;;;13.20;;
16735;SDS011;17990;49.548;9.730;2024-03-08T06:42:16;23.63;;;13.83;;
16735;SDS011;17990;49.548;9.730;2024-03-08T06:44:42;25.47;;;13.63;;
16735;SDS011;17990;49.548;9.730;2024-03-08T06:47:14;25.17;;;13.73;;
16735;SDS011;17990;49.548;9.730;2024-03-08T06:49:41;22.60;;;13.57;;
16735;SDS011;17990;49.548;9.730;2024-03-08T06:52:08;25.27;;;13.93;;
16735;SDS011;17990;49.548;9.730;2024-03-08T06:54:35;33.40;;;13.90;;
16735;SDS011;17990;49.548;9.730;2024-03-08T06:57:03;24.50;;;13.80;;
16735;SDS011;17990;49.548;9.730;2024-03-08T06:59:31;23.47;;;13.87;;
16735;SDS011;17990;49.548;9.730;2024-03-08T07:01:57;25.87;;;13.37;;
16735;SDS011;17990;49.548;9.730;2024-03-08T07:04:25;23.17;;;13.73;;
16735;SDS011;17990;49.548;9.730;2024-03-08T07:06:54;22.67;;;13.20;;
16735;SDS011;17990;49.548;9.730;2024-03-08T07:09:22;26.10;;;15.47;;
16735;SDS011;17990;49.548;9.730;2024-03-08T07:11:49;23.10;;;13.57;;
16735;SDS011;17990;49.548;9.730;2024-03-08T07:14:21;20.57;;;12.53;;
16735;SDS011;17990;49.548;9.730;2024-03-08T07:16:48;22.30;;;12.80;;
16735;SDS011;17990;49.548;9.730;2024-03-08T07:19:14;22.13;;;13.23;;
16735;SDS011;17990;49.548;9.730;2024-03-08T07:21:41;20.30;;;12.27;;
16735;SDS011;17990;49.548;9.730;2024-03-08T07:24:09;21.53;;;12.33;;
16735;SDS011;17990;49.548;9.730;2024-03-08T07:26:52;18.10;;;11.77;;
16735;SDS011;17990;49.548;9.730;2024-03-08T07:29:21;19.00;;;12.77;;
16735;SDS011;17990;49.548;9.730;2024-03-08T07:31:48;19.40;;;12.80;;
16735;SDS011;17990;49.548;9.730;2024-03-08T07:34:26;18.97;;;12.13;;
16735;SDS011;17990;49.548;9.730;2024-03-08T07:36:52;17.67;;;12.03;;
16735;SDS011;17990;49.548;9.730;2024-03-08T07:39:21;20.33;;;12.53;;
16735;SDS011;17990;49.548;9.730;2024-03-08T07:41:48;18.87;;;11.93;;
16735;SDS011;17990;49.548;9.730;2024-03-08T07:44:17;15.87;;;11.63;;
16735;SDS011;17990;49.548;9.730;2024-03-08T07:46:45;20.70;;;13.60;;
16735;SDS011;17990;49.548;9.730;2024-03-08T07:49:12;19.30;;;12.13;;
16735;SDS011;17990;49.548;9.730;2024-03-08T07:51:40;19.77;;;13.10;;
16735;SDS011;17990;49.548;9.730;2024-03-08T07:54:06;18.17;;;12.17;;
16735;SDS011;17990;49.548;9.730;2024-03-08T07:56:34;22.80;;;12.87;;
16735;SDS011;17990;49.548;9.730;2024-03-08T07:59:01;18.17;;;11.93;;
16735;SDS011;17990;49.548;9.730;2024-03-08T08:01:28;17.03;;;12.03;;
16735;SDS011;17990;49.548;9.730;2024-03-08T08:03:57;18.43;;;12.03;;
16735;SDS011;17990;49.548;9.730;2024-03-08T08:06:23;18.20;;;12.40;;
16735;SDS011;17990;49.548;9.730;2024-03-08T08:08:50;19.17;;;11.87;;
16735;SDS011;17990;49.548;9.730;2024-03-08T08:11:17;19.27;;;13.00;;
16735;SDS011;17990;49.548;9.730;2024-03-08T08:13:45;18.27;;;12.53;;
16735;SDS011;17990;49.548;9.730;2024-03-08T08:16:11;18.00;;;11.97;;
16735;SDS011;17990;49.548;9.730;2024-03-08T08:18:39;22.73;;;13.57;;
16735;SDS011;17990;49.548;9.730;2024-03-08T08:21:07;17.03;;;12.40;;
16735;SDS011;17990;49.548;9.730;2024-03-08T08:23:34;18.30;;;12.80;;
16735;SDS011;17990;49.548;9.730;2024-03-08T08:26:01;18.47;;;12.40;;
16735;SDS011;17990;49.548;9.730;2024-03-08T08:28:29;18.37;;;13.10;;
16735;SDS011;17990;49.548;9.730;2024-03-08T08:30:56;18.07;;;12.37;;
16735;SDS011;17990;49.548;9.730;2024-03-08T08:33:24;19.23;;;12.23;;
16735;SDS011;17990;49.548;9.730;2024-03-08T08:35:51;19.60;;;12.67;;
16735;SDS011;17990;49.548;9.730;2024-03-08T08:38:20;18.87;;;12.90;;
16735;SDS011;17990;49.548;9.730;2024-03-08T08:40:48;18.87;;;12.30;;
16735;SDS011;17990;49.548;9.730;2024-03-08T08:43:15;20.00;;;13.07;;
16735;SDS011;17990;49.548;9.730;2024-03-08T08:45:42;18.87;;;12.23;;
16735;SDS011;17990;49.548;9.730;2024-03-08T08:48:09;22.80;;;13.50;;
16735;SDS011;17990;49.548;9.730;2024-03-08T08:50:36;18.57;;;13.03;;
16735;SDS011;17990;49.548;9.730;2024-03-08T08:53:04;17.87;;;12.37;;
16735;SDS011;17990;49.548;9.730;2024-03-08T08:55:33;22.80;;;13.10;;
16735;SDS011;17990;49.548;9.730;2024-03-08T08:58:00;19.67;;;13.23;;
16735;SDS011;17990;49.548;9.730;2024-03-08T09:00:28;19.17;;;13.03;;
16735;SDS011;17990;49.548;9.730;2024-03-08T09:02:56;20.70;;;12.17;;
16735;SDS011;17990;49.548;9.730;2024-03-08T09:05:23;20.00;;;12.63;;
16735;SDS011;17990;49.548;9.730;2024-03-08T09:07:51;19.03;;;12.43;;
16735;SDS011;17990;49.548;9.730;2024-03-08T09:10:18;19.43;;;12.93;;
16735;SDS011;17990;49.548;9.730;2024-03-08T09:12:46;19.97;;;12.80;;
16735;SDS011;17990;49.548;9.730;2024-03-08T09:15:13;20.13;;;13.00;;
16735;SDS011;17990;49.548;9.730;2024-03-08T09:17:40;16.70;;;11.87;;
16735;SDS011;17990;49.548;9.730;2024-03-08T09:20:08;19.53;;;13.33;;
16735;SDS011;17990;49.548;9.730;2024-03-08T09:22:39;21.27;;;13.03;;
16735;SDS011;17990;49.548;9.730;2024-03-08T09:25:06;20.27;;;12.83;;
16735;SDS011;17990;49.548;9.730;2024-03-08T09:27:34;22.80;;;12.27;;
16735;SDS011;17990;49.548;9.730;2024-03-08T09:30:03;19.07;;;12.23;;
16735;SDS011;17990;49.548;9.730;2024-03-08T09:32:31;20.63;;;12.17;;
16735;SDS011;17990;49.548;9.730;2024-03-08T09:34:58;20.73;;;12.53;;
16735;SDS011;17990;49.548;9.730;2024-03-08T09:37:26;17.53;;;11.77;;
16735;SDS011;17990;49.548;9.730;2024-03-08T09:39:52;19.60;;;12.30;;
16735;SDS011;17990;49.548;9.730;2024-03-08T09:42:19;18.23;;;11.37;;
16735;SDS011;17990;49.548;9.730;2024-03-08T09:44:46;19.00;;;12.80;;
16735;SDS011;17990;49.548;9.730;2024-03-08T09:47:14;20.93;;;13.07;;
16735;SDS011;17990;49.548;9.730;2024-03-08T09:49:41;20.53;;;13.20;;
16735;SDS011;17990;49.548;9.730;2024-03-08T09:52:09;22.13;;;13.07;;
16735;SDS011;17990;49.548;9.730;2024-03-08T09:54:37;21.77;;;14.77;;
16735;SDS011;17990;49.548;9.730;2024-03-08T09:57:04;26.60;;;14.70;;
16735;SDS011;17990;49.548;9.730;2024-03-08T09:59:34;19.10;;;12.53;;
16735;SDS011;17990;49.548;9.730;2024-03-08T10:02:14;21.43;;;13.60;;
16735;SDS011;17990;49.548;9.730;2024-03-08T10:04:42;19.33;;;12.10;;
16735;SDS011;17990;49.548;9.730;2024-03-08T10:07:11;18.23;;;11.40;;
16735;SDS011;17990;49.548;9.730;2024-03-08T10:09:38;21.47;;;12.53;;
16735;SDS011;17990;49.548;9.730;2024-03-08T10:12:06;30.83;;;18.97;;
16735;SDS011;17990;49.548;9.730;2024-03-08T10:14:38;24.33;;;15.97;;
16735;SDS011;17990;49.548;9.730;2024-03-08T10:17:06;18.33;;;12.70;;
16735;SDS011;17990;49.548;9.730;2024-03-08T10:19:34;21.63;;;13.50;;
16735;SDS011;17990;49.548;9.730;2024-03-08T10:22:01;18.27;;;12.67;;
16735;SDS011;17990;49.548;9.730;2024-03-08T10:24:29;18.60;;;12.33;;
16735;SDS011;17990;49.548;9.730;2024-03-08T10:26:58;19.20;;;12.57;;
16735;SDS011;17990;49.548;9.730;2024-03-08T10:29:26;19.37;;;12.80;;
16735;SDS011;17990;49.548;9.730;2024-03-08T10:31:53;18.13;;;12.13;;
16735;SDS011;17990;49.548;9.730;2024-03-08T10:34:22;17.80;;;11.70;;
16735;SDS011;17990;49.548;9.730;2024-03-08T10:36:51;17.17;;;11.70;;
16735;SDS011;17990;49.548;9.730;2024-03-08T10:39:21;19.07;;;12.27;;
16735;SDS011;17990;49.548;9.730;2024-03-08T10:41:52;20.77;;;11.53;;
16735;SDS011;17990;49.548;9.730;2024-03-08T10:44:26;17.17;;;11.30;;
16735;SDS011;17990;49.548;9.730;2024-03-08T10:47:04;17.47;;;11.80;;
16735;SDS011;17990;49.548;9.730;2024-03-08T10:49:43;15.87;;;11.57;;
16735;SDS011;17990;49.548;9.730;2024-03-08T10:52:20;17.90;;;11.57;;
16735;SDS011;17990;49.548;9.730;2024-03-08T10:54:47;17.13;;;11.87;;
16735;SDS011;17990;49.548;9.730;2024-03-08T10:57:14;16.90;;;11.43;;
16735;SDS011;17990;49.548;9.730;2024-03-08T10:59:44;18.13;;;11.43;;
16735;SDS011;17990;49.548;9.730;2024-03-08T11:02:12;18.63;;;12.03;;
16735;SDS011;17990;49.548;9.730;2024-03-08T11:04:45;18.60;;;12.00;;
16735;SDS011;17990;49.548;9.730;2024-03-08T11:07:14;17.47;;;12.17;;
16735;SDS011;17990;49.548;9.730;2024-03-08T11:09:46;17.13;;;10.93;;
16735;SDS011;17990;49.548;9.730;2024-03-08T11:12:24;18.40;;;11.93;;
16735;SDS011;17990;49.548;9.730;2024-03-08T11:14:54;18.67;;;11.87;;
16735;SDS011;17990;49.548;9.730;2024-03-08T11:17:25;16.60;;;11.40;;
16735;SDS011;17990;49.548;9.730;2024-03-08T11:20:09;16.23;;;10.80;;
16735;SDS011;17990;49.548;9.730;2024-03-08T11:22:40;16.80;;;11.50;;
16735;SDS011;17990;49.548;9.730;2024-03-08T11:25:30;15.13;;;10.83;;
16735;SDS011;17990;49.548;9.730;2024-03-08T11:28:11;23.43;;;11.20;;
16735;SDS011;17990;49.548;9.730;2024-03-08T11:30:42;14.60;;;10.30;;
16735;SDS011;17990;49.548;9.730;2024-03-08T11:33:11;23.00;;;15.70;;
16735;SDS011;17990;49.548;9.730;2024-03-08T11:35:38;16.43;;;11.40;;
16735;SDS011;17990;49.548;9.730;2024-03-08T11:38:05;16.03;;;11.37;;
16735;SDS011;17990;49.548;9.730;2024-03-08T11:40:35;16.80;;;11.30;;
16735;SDS011;17990;49.548;9.730;2024-03-08T11:43:02;17.40;;;11.03;;
16735;SDS011;17990;49.548;9.730;2024-03-08T11:45:32;17.47;;;10.97;;
16735;SDS011;17990;49.548;9.730;2024-03-08T11:48:01;14.20;;;9.83;;
16735;SDS011;17990;49.548;9.730;2024-03-08T11:50:28;16.53;;;10.27;;
16735;SDS011;17990;49.548;9.730;2024-03-08T11:52:59;14.10;;;10.17;;
16735;SDS011;17990;49.548;9.730;2024-03-08T11:55:27;13.87;;;9.97;;
16735;SDS011;17990;49.548;9.730;2024-03-08T11:58:00;16.60;;;10.73;;
16735;SDS011;17990;49.548;9.730;2024-03-08T12:00:30;13.30;;;9.30;;
16735;SDS011;17990;49.548;9.730;2024-03-08T12:03:03;14.70;;;10.83;;
16735;SDS011;17990;49.548;9.730;2024-03-08T12:05:31;15.07;;;10.33;;
16735;SDS011;17990;49.548;9.730;2024-03-08T12:07:59;14.73;;;10.50;;
16735;SDS011;17990;49.548;9.730;2024-03-08T12:10:25;13.10;;;9.27;;
16735;SDS011;17990;49.548;9.730;2024-03-08T12:12:53;15.60;;;10.10;;
16735;SDS011;17990;49.548;9.730;2024-03-08T12:15:23;13.67;;;10.00;;
16735;SDS011;17990;49.548;9.730;2024-03-08T12:17:51;14.63;;;10.17;;
16735;SDS011;17990;49.548;9.730;2024-03-08T12:20:21;15.27;;;9.77;;
16735;SDS011;17990;49.548;9.730;2024-03-08T12:22:50;13.53;;;9.67;;
16735;SDS011;17990;49.548;9.730;2024-03-08T12:25:18;14.17;;;10.03;;
16735;SDS011;17990;49.548;9.730;2024-03-08T12:27:45;15.77;;;9.87;;
16735;SDS011;17990;49.548;9.730;2024-03-08T12:30:19;15.57;;;10.13;;
16735;SDS011;17990;49.548;9.730;2024-03-08T12:32:52;14.10;;;9.20;;
16735;SDS011;17990;49.548;9.730;2024-03-08T12:35:21;12.37;;;8.90;;
16735;SDS011;17990;49.548;9.730;2024-03-08T12:37:48;14.37;;;9.30;;
16735;SDS011;17990;49.548;9.730;2024-03-08T12:40:16;13.03;;;9.37;;
16735;SDS011;17990;49.548;9.730;2024-03-08T12:42:44;13.33;;;9.40;;
16735;SDS011;17990;49.548;9.730;2024-03-08T12:45:12;14.47;;;9.43;;
16735;SDS011;17990;49.548;9.730;2024-03-08T12:47:39;12.80;;;8.33;;
16735;SDS011;17990;49.548;9.730;2024-03-08T12:50:09;14.67;;;9.97;;
16735;SDS011;17990;49.548;9.730;2024-03-08T12:52:36;14.83;;;9.63;;
16735;SDS011;17990;49.548;9.730;2024-03-08T12:55:03;20.87;;;12.73;;
16735;SDS011;17990;49.548;9.730;2024-03-08T12:57:32;17.43;;;11.10;;
16735;SDS011;17990;49.548;9.730;2024-03-08T12:59:59;16.50;;;9.90;;
16735;SDS011;17990;49.548;9.730;2024-03-08T13:02:27;14.70;;;8.97;;
16735;SDS011;17990;49.548;9.730;2024-03-08T13:04:55;16.47;;;11.43;;
16735;SDS011;17990;49.548;9.730;2024-03-08T13:07:24;13.47;;;9.37;;
16735;SDS011;17990;49.548;9.730;2024-03-08T13:09:51;20.10;;;10.07;;
16735;SDS011;17990;49.548;9.730;2024-03-08T13:12:19;18.03;;;11.07;;
16735;SDS011;17990;49.548;9.730;2024-03-08T13:14:46;19.40;;;12.97;;
16735;SDS011;17990;49.548;9.730;2024-03-08T13:17:13;27.83;;;17.70;;
16735;SDS011;17990;49.548;9.730;2024-03-08T13:19:39;15.77;;;11.57;;
16735;SDS011;17990;49.548;9.730;2024-03-08T13:22:07;11.00;;;8.47;;
16735;SDS011;17990;49.548;9.730;2024-03-08T13:24:38;12.57;;;8.90;;
16735;SDS011;17990;49.548;9.730;2024-03-08T13:27:06;12.60;;;8.50;;
16735;SDS011;17990;49.548;9.730;2024-03-08T13:29:44;13.07;;;8.93;;
16735;SDS011;17990;49.548;9.730;2024-03-08T13:32:12;13.53;;;8.57;;
16735;SDS011;17990;49.548;9.730;2024-03-08T13:34:40;12.33;;;8.13;;
16735;SDS011;17990;49.548;9.730;2024-03-08T13:37:07;15.37;;;8.87;;
16735;SDS011;17990;49.548;9.730;2024-03-08T13:39:35;18.10;;;11.40;;
16735;SDS011;17990;49.548;9.730;2024-03-08T13:42:07;12.87;;;9.50;;
16735;SDS011;17990;49.548;9.730;2024-03-08T13:44:34;18.90;;;10.67;;
16735;SDS011;17990;49.548;9.730;2024-03-08T13:47:02;11.00;;;7.47;;
16735;SDS011;17990;49.548;9.730;2024-03-08T13:49:30;11.13;;;7.50;;
16735;SDS011;17990;49.548;9.730;2024-03-08T13:51:58;14.17;;;8.00;;
16735;SDS011;17990;49.548;9.730;2024-03-08T13:54:24;9.80;;;7.43;;
16735;SDS011;17990;49.548;9.730;2024-03-08T13:56:55;12.40;;;8.53;;
16735;SDS011;17990;49.548;9.730;2024-03-08T13:59:23;11.27;;;7.83;;
16735;SDS011;17990;49.548;9.730;2024-03-08T14:01:54;11.47;;;7.90;;
16735;SDS011;17990;49.548;9.730;2024-03-08T14:04:21;12.23;;;7.63;;
16735;SDS011;17990;49.548;9.730;2024-03-08T14:06:49;9.97;;;6.57;;
16735;SDS011;17990;49.548;9.730;2024-03-08T14:09:16;9.23;;;6.83;;
16735;SDS011;17990;49.548;9.730;2024-03-08T14:11:44;12.03;;;7.40;;
16735;SDS011;17990;49.548;9.730;2024-03-08T14:14:10;13.20;;;8.27;;
16735;SDS011;17990;49.548;9.730;2024-03-08T14:16:39;10.57;;;7.57;;
16735;SDS011;17990;49.548;9.730;2024-03-08T14:19:06;11.20;;;7.73;;
16735;SDS011;17990;49.548;9.730;2024-03-08T14:21:35;12.30;;;8.03;;
16735;SDS011;17990;49.548;9.730;2024-03-08T14:24:04;10.80;;;6.43;;
16735;SDS011;17990;49.548;9.730;2024-03-08T14:26:31;11.73;;;7.10;;
16735;SDS011;17990;49.548;9.730;2024-03-08T14:28:59;10.17;;;7.40;;